createdAt,value
2023-04-27T00:01:15.151Z,100054.25
2023-04-27T00:03:42.459Z,100055.56
2023-04-27T00:06:12.390Z,100062.47
2023-04-27T00:08:49.746Z,100053.28
2023-04-27T00:11:16.354Z,100060.25
2023-04-27T00:13:42.922Z,100054.53
2023-04-27T00:16:09.531Z,100050.16
2023-04-27T00:18:58.071Z,100051.69
2023-04-27T00:22:19.426Z,100053.91
2023-04-27T00:24:48.959Z,100049.09
2023-04-27T00:27:15.530Z,100058.03
2023-04-27T00:29:42.945Z,100057.63
2023-04-27T00:32:12.543Z,100050.50
2023-04-27T00:34:39.207Z,100052.69
2023-04-27T00:40:08.720Z,100047.25
2023-04-27T00:42:36.055Z,100048.91
2023-04-27T00:45:03.503Z,100050.78
2023-04-27T00:47:45.898Z,100044.56
2023-04-27T00:50:38.741Z,100047.22
2023-04-27T00:53:21.669Z,100048.28
2023-04-27T00:55:48.531Z,100042.25
2023-04-27T00:58:15.566Z,100034.88
2023-04-27T01:00:42.142Z,100045.47
2023-04-27T01:03:08.908Z,100041.91
2023-04-27T01:05:37.306Z,100047.00
2023-04-27T01:08:04.580Z,100041.88
2023-04-27T01:10:31.298Z,100047.84
2023-04-27T01:12:57.888Z,100045.91
2023-04-27T01:15:24.432Z,100051.84
2023-04-27T01:21:21.441Z,100047.66
2023-04-27T01:23:47.990Z,100049.50
2023-04-27T01:26:16.419Z,100053.50
2023-04-27T01:28:43.440Z,100047.31
2023-04-27T01:31:11.596Z,100056.19
2023-04-27T01:33:38.933Z,100056.34
2023-04-27T01:38:59.778Z,100063.28
2023-04-27T01:41:26.325Z,100062.50
2023-04-27T01:43:52.886Z,100060.84
2023-04-27T01:49:49.303Z,100055.88
2023-04-27T01:52:34.267Z,100067.53
2023-04-27T01:55:01.030Z,100067.28
2023-04-27T01:57:27.628Z,100068.03
2023-04-27T01:59:54.257Z,100070.09
2023-04-27T02:02:21.059Z,100069.09
2023-04-27T02:04:47.818Z,100072.88
2023-04-27T02:07:14.486Z,100073.81
2023-04-27T02:09:41.044Z,100072.50
2023-04-27T02:12:07.802Z,100074.75
2023-04-27T02:14:34.390Z,100072.03
2023-04-27T02:17:01.028Z,100078.13
2023-04-27T02:19:27.666Z,100077.56
2023-04-27T02:22:16.436Z,100081.91
2023-04-27T02:25:15.809Z,100073.50
2023-04-27T02:27:42.590Z,100084.03
2023-04-27T02:30:11.810Z,100084.31
2023-04-27T02:32:38.957Z,100082.72
2023-04-27T02:35:05.923Z,100083.50
2023-04-27T02:37:32.467Z,100087.34
2023-04-27T02:39:59.072Z,100079.88
2023-04-27T02:42:25.885Z,100092.63
2023-04-27T02:44:52.543Z,100090.38
2023-04-27T02:47:19.101Z,100086.38
2023-04-27T02:49:45.827Z,100099.78
2023-04-27T02:52:12.375Z,100092.13
2023-04-27T02:54:39.348Z,100090.88
2023-04-27T02:57:05.928Z,100098.97
2023-04-27T02:59:33.042Z,100097.75
2023-04-27T03:01:59.674Z,100096.66
2023-04-27T03:04:26.322Z,100098.37
2023-04-27T03:06:53.020Z,100108.56
2023-04-27T03:09:19.754Z,100110.06
2023-04-27T03:12:02.831Z,100109.19
2023-04-27T03:14:29.478Z,100113.78
2023-04-27T03:16:57.424Z,100114.97
2023-04-27T03:19:24.092Z,100120.78
2023-04-27T03:22:08.922Z,100117.81
2023-04-27T03:25:00.393Z,100123.06
2023-04-27T03:27:43.482Z,100117.31
2023-04-27T03:30:10.918Z,100120.53
2023-04-27T03:32:37.467Z,100123.81
2023-04-27T03:35:04.684Z,100126.47
2023-04-27T03:37:31.361Z,100131.03
2023-04-27T03:39:57.948Z,100131.00
2023-04-27T03:42:24.608Z,100133.03
2023-04-27T03:44:52.594Z,100129.56
2023-04-27T03:47:19.128Z,100129.31
2023-04-27T03:49:46.260Z,100136.88
2023-04-27T03:52:12.811Z,100134.28
2023-04-27T03:54:39.382Z,100139.50
2023-04-27T03:57:05.965Z,100132.37
2023-04-27T03:59:32.609Z,100146.66
2023-04-27T04:02:01.188Z,100142.19
2023-04-27T04:04:28.294Z,100150.41
2023-04-27T04:06:54.962Z,100145.91
2023-04-27T04:09:23.718Z,100151.56
2023-04-27T04:11:52.467Z,100145.41
2023-04-27T04:14:19.025Z,100153.69
2023-04-27T04:16:45.738Z,100155.63
2023-04-27T04:19:12.444Z,100165.16
2023-04-27T04:21:39.129Z,100161.97
2023-04-27T04:24:06.178Z,100165.81
2023-04-27T04:26:33.598Z,100167.75
2023-04-27T04:29:00.166Z,100171.06
2023-04-27T04:31:27.688Z,100175.97
2023-04-27T04:33:54.288Z,100178.47
2023-04-27T04:37:10.700Z,100175.25
2023-04-27T04:40:08.904Z,100179.09
2023-04-27T04:42:38.866Z,100183.75
2023-04-27T04:45:07.116Z,100189.22
2023-04-27T04:47:34.358Z,100192.31
2023-04-27T04:50:01.596Z,100193.47
2023-04-27T04:52:28.329Z,100184.03
2023-04-27T04:54:54.885Z,100188.47
2023-04-27T04:57:22.209Z,100192.38
2023-04-27T04:59:48.883Z,100195.12
2023-04-27T05:02:15.503Z,100192.41
2023-04-27T05:04:42.207Z,100198.34
2023-04-27T05:07:08.766Z,100200.06
2023-04-27T05:09:35.375Z,100216.22
2023-04-27T05:12:02.226Z,100212.12
2023-04-27T05:14:28.889Z,100217.19
2023-04-27T05:16:55.833Z,100207.00
2023-04-27T05:19:22.590Z,100211.97
2023-04-27T05:21:49.479Z,100209.87
2023-04-27T05:24:16.114Z,100214.56
2023-04-27T05:26:43.512Z,100224.66
2023-04-27T05:29:10.074Z,100221.13
2023-04-27T05:31:36.654Z,100220.31
2023-04-27T05:34:03.362Z,100227.19
2023-04-27T05:36:29.964Z,100228.31
2023-04-27T05:38:56.509Z,100230.25
2023-04-27T05:41:23.833Z,100225.34
2023-04-27T05:43:51.343Z,100237.59
2023-04-27T05:46:17.914Z,100229.75
2023-04-27T05:48:44.548Z,100232.38
2023-04-27T05:51:11.173Z,100241.44
2023-04-27T05:53:38.370Z,100247.78
2023-04-27T05:56:06.976Z,100237.94
2023-04-27T05:58:33.874Z,100244.47
2023-04-27T06:01:01.643Z,100251.59
2023-04-27T06:03:29.764Z,100242.84
2023-04-27T06:05:59.562Z,100252.66
2023-04-27T06:08:27.427Z,100255.91
2023-04-27T06:10:54.444Z,100254.84
2023-04-27T06:13:21.689Z,100257.84
2023-04-27T06:15:48.343Z,100263.50
2023-04-27T06:18:30.130Z,100255.81
2023-04-27T06:21:01.619Z,100256.06
2023-04-27T06:23:28.516Z,100258.09
2023-04-27T06:25:58.942Z,100256.16
2023-04-27T06:28:35.717Z,100258.22
2023-04-27T06:31:02.347Z,100263.66
2023-04-27T06:33:28.974Z,100264.16
2023-04-27T06:36:23.595Z,100271.00
2023-04-27T06:39:15.425Z,100267.59
2023-04-27T06:41:51.459Z,100271.72
2023-04-27T06:44:18.142Z,100269.16
2023-04-27T06:46:44.684Z,100275.50
2023-04-27T06:49:11.617Z,100272.88
2023-04-27T06:51:38.419Z,100270.91
2023-04-27T06:54:05.233Z,100263.75
2023-04-27T06:56:32.198Z,100257.87
2023-04-27T06:58:58.882Z,100259.12
2023-04-27T07:01:25.544Z,100266.91
2023-04-27T07:03:52.320Z,100271.50
2023-04-27T07:06:19.048Z,100270.19
2023-04-27T07:08:45.617Z,100270.25
2023-04-27T07:11:13.597Z,100271.56
2023-04-27T07:13:40.184Z,100281.63
2023-04-27T07:16:07.227Z,100281.19
2023-04-27T07:18:33.849Z,100276.00
2023-04-27T07:21:00.385Z,100275.13
2023-04-27T07:23:27.191Z,100280.47
2023-04-27T07:25:54.264Z,100278.69
2023-04-27T07:28:20.982Z,100285.41
2023-04-27T07:30:47.886Z,100291.28
2023-04-27T07:33:14.527Z,100287.09
2023-04-27T07:35:41.279Z,100283.84
2023-04-27T07:38:08.477Z,100293.09
2023-04-27T07:40:35.199Z,100283.00
2023-04-27T07:43:02.932Z,100282.88
2023-04-27T07:45:33.495Z,100284.84
2023-04-27T07:48:02.221Z,100285.13
2023-04-27T07:50:30.235Z,100283.41
2023-04-27T07:52:57.935Z,100280.47
2023-04-27T07:55:25.556Z,100270.06
2023-04-27T07:57:58.325Z,100270.91
2023-04-27T08:00:27.854Z,100285.25
2023-04-27T08:02:55.108Z,100283.03
2023-04-27T08:05:22.370Z,100278.84
2023-04-27T08:07:49.348Z,100279.75
2023-04-27T08:10:16.565Z,100280.78
2023-04-27T08:12:43.144Z,100275.16
2023-04-27T08:15:11.106Z,100273.91
2023-04-27T08:17:40.676Z,100277.59
2023-04-27T08:20:09.738Z,100284.53
2023-04-27T08:22:36.313Z,100285.88
2023-04-27T08:27:40.154Z,100287.31
2023-04-27T08:30:07.839Z,100279.25
2023-04-27T08:32:34.569Z,100282.84
2023-04-27T08:35:01.266Z,100282.31
2023-04-27T08:37:27.862Z,100286.16
2023-04-27T08:40:25.486Z,100280.50
2023-04-27T08:46:15.953Z,100288.16
2023-04-27T08:48:42.546Z,100286.56
2023-04-27T08:51:14.720Z,100284.94
2023-04-27T08:53:49.238Z,100282.19
2023-04-27T08:56:16.006Z,100274.13
2023-04-27T08:58:42.625Z,100285.75
2023-04-27T09:01:09.211Z,100275.53
2023-04-27T09:03:38.506Z,100273.19
2023-04-27T09:06:06.302Z,100272.78
2023-04-27T09:08:44.268Z,100269.00
2023-04-27T09:11:10.992Z,100264.19
2023-04-27T09:13:39.709Z,100265.81
2023-04-27T09:16:06.525Z,100261.16
2023-04-27T09:18:37.972Z,100265.53
2023-04-27T09:21:04.692Z,100261.72
2023-04-27T09:23:40.711Z,100260.44
2023-04-27T09:26:08.261Z,100260.13
2023-04-27T09:28:39.067Z,100269.78
2023-04-27T09:31:09.081Z,100260.50
2023-04-27T09:33:36.154Z,100256.19
2023-04-27T09:36:05.704Z,100257.59
2023-04-27T09:38:32.873Z,100254.88
2023-04-27T09:41:00.344Z,100249.47
2023-04-27T09:43:28.706Z,100243.69
2023-04-27T09:45:56.014Z,100248.81
2023-04-27T09:48:24.149Z,100252.16
2023-04-27T09:50:51.959Z,100251.84
2023-04-27T09:53:21.029Z,100242.28
2023-04-27T09:55:59.990Z,100246.81
2023-04-27T09:58:38.583Z,100231.28
2023-04-27T10:01:27.131Z,100229.25
2023-04-27T10:04:31.870Z,100226.69
2023-04-27T10:07:04.968Z,100227.44
2023-04-27T10:09:36.577Z,100226.47
2023-04-27T10:12:21.438Z,100218.62
2023-04-27T10:17:53.356Z,100225.62
2023-04-27T10:20:33.176Z,100213.25
2023-04-27T10:23:00.818Z,100213.47
2023-04-27T10:25:38.333Z,100209.47
2023-04-27T10:28:05.180Z,100218.03
2023-04-27T10:30:46.046Z,100219.69
2023-04-27T10:36:34.746Z,100215.59
2023-04-27T10:39:01.498Z,100217.63
2023-04-27T10:41:34.677Z,100210.47
2023-04-27T10:44:28.791Z,100219.81
2023-04-27T10:46:57.577Z,100210.84
2023-04-27T10:49:24.284Z,100209.44
2023-04-27T10:51:51.461Z,100216.09
2023-04-27T10:54:18.799Z,100209.72
2023-04-27T10:56:45.912Z,100214.25
2023-04-27T10:59:12.672Z,100208.88
2023-04-27T11:01:40.252Z,100214.47
2023-04-27T11:04:07.220Z,100230.09
2023-04-27T11:06:42.529Z,100218.94
2023-04-27T11:09:10.683Z,100212.66
2023-04-27T11:11:37.385Z,100203.50
2023-04-27T11:14:03.991Z,100199.50
2023-04-27T11:16:33.512Z,100201.00
2023-04-27T11:19:08.956Z,100194.72
2023-04-27T11:21:35.581Z,100198.06
2023-04-27T11:24:10.105Z,100194.00
2023-04-27T11:26:36.859Z,100199.78
2023-04-27T11:29:09.369Z,100209.31
2023-04-27T11:31:39.307Z,100190.78
2023-04-27T11:34:07.893Z,100205.22
2023-04-27T11:36:34.612Z,100195.12
2023-04-27T11:39:01.257Z,100200.03
2023-04-27T11:41:37.503Z,100195.50
2023-04-27T11:44:09.142Z,100192.50
2023-04-27T11:46:36.893Z,100194.56
2023-04-27T11:49:04.960Z,100200.84
2023-04-27T11:51:33.532Z,100200.34
2023-04-27T11:54:07.765Z,100195.31
2023-04-27T11:56:42.175Z,100198.03
2023-04-27T11:59:23.126Z,100197.94
2023-04-27T12:01:51.661Z,100200.25
2023-04-27T12:04:18.829Z,100197.97
2023-04-27T12:06:45.796Z,100189.44
2023-04-27T12:09:12.332Z,100190.34
2023-04-27T12:11:38.974Z,100193.28
2023-04-27T12:14:09.075Z,100199.41
2023-04-27T12:16:35.763Z,100192.94
2023-04-27T12:21:51.404Z,100183.53
2023-04-27T12:24:18.099Z,100183.03
2023-04-27T12:26:44.674Z,100185.53
2023-04-27T12:29:11.736Z,100188.22
2023-04-27T12:31:38.610Z,100187.13
2023-04-27T12:34:05.913Z,100187.06
2023-04-27T12:37:01.042Z,100174.34
2023-04-27T12:39:43.235Z,100185.84
2023-04-27T12:42:09.824Z,100182.47
2023-04-27T12:44:36.773Z,100180.31
2023-04-27T12:47:04.233Z,100185.97
2023-04-27T12:49:30.890Z,100185.87
2023-04-27T12:51:58.106Z,100181.50
2023-04-27T12:54:24.661Z,100176.06
2023-04-27T12:56:51.772Z,100179.31
2023-04-27T12:59:18.399Z,100182.19
2023-04-27T13:01:45.944Z,100179.75
2023-04-27T13:04:19.372Z,100175.53
2023-04-27T13:06:46.991Z,100180.41
2023-04-27T13:09:13.674Z,100171.31
2023-04-27T13:11:40.348Z,100168.00
2023-04-27T13:14:07.178Z,100176.53
2023-04-27T13:16:33.910Z,100177.09
2023-04-27T13:19:00.558Z,100177.44
2023-04-27T13:21:28.074Z,100178.44
2023-04-27T13:24:00.044Z,100175.87
2023-04-27T13:26:26.993Z,100171.09
2023-04-27T13:28:53.596Z,100179.63
2023-04-27T13:31:20.332Z,100181.97
2023-04-27T13:33:46.986Z,100187.94
2023-04-27T13:36:13.971Z,100187.72
2023-04-27T13:38:40.824Z,100187.94
2023-04-27T13:41:08.637Z,100181.31
2023-04-27T13:43:36.523Z,100190.88
2023-04-27T13:46:03.430Z,100179.84
2023-04-27T13:48:31.140Z,100187.38
2023-04-27T13:50:58.081Z,100180.66
2023-04-27T13:53:29.027Z,100182.28
2023-04-27T13:55:57.343Z,100171.38
2023-04-27T13:58:26.237Z,100164.88
2023-04-27T14:00:53.523Z,100173.72
2023-04-27T14:03:20.696Z,100177.75
2023-04-27T14:05:56.429Z,100171.59
2023-04-27T14:08:23.036Z,100182.66
2023-04-27T14:10:49.666Z,100172.06
2023-04-27T14:13:20.474Z,100178.78
2023-04-27T14:15:47.208Z,100177.94
2023-04-27T14:18:14.309Z,100191.22
2023-04-27T14:20:42.210Z,100193.25
2023-04-27T14:23:09.256Z,100192.75
2023-04-27T14:25:35.852Z,100195.09
2023-04-27T14:28:04.153Z,100197.88
2023-04-27T14:30:34.968Z,100197.59
2023-04-27T14:33:02.245Z,100192.59
2023-04-27T14:35:28.926Z,100182.63
2023-04-27T14:37:57.186Z,100194.13
2023-04-27T14:40:23.861Z,100191.53
2023-04-27T14:42:50.403Z,100198.34
2023-04-27T14:45:18.855Z,100195.56
2023-04-27T14:47:45.657Z,100196.19
2023-04-27T14:50:12.369Z,100191.19
2023-04-27T14:52:39.422Z,100192.03
2023-04-27T14:55:07.588Z,100195.97
2023-04-27T14:57:38.832Z,100195.47
2023-04-27T15:00:10.036Z,100185.91
2023-04-27T15:02:39.816Z,100193.41
2023-04-27T15:05:07.199Z,100188.47
2023-04-27T15:07:33.823Z,100199.31
2023-04-27T15:10:00.476Z,100196.59
2023-04-27T15:12:27.157Z,100199.56
2023-04-27T15:14:53.968Z,100196.78
2023-04-27T15:17:20.711Z,100200.28
2023-04-27T15:19:47.261Z,100204.53
2023-04-27T15:22:16.863Z,100202.03
2023-04-27T15:24:43.464Z,100198.22
2023-04-27T15:27:10.873Z,100193.94
2023-04-27T15:29:37.959Z,100198.62
2023-04-27T15:32:04.779Z,100195.56
2023-04-27T15:34:31.833Z,100200.25
2023-04-27T15:36:58.391Z,100200.50
2023-04-27T15:39:25.135Z,100191.22
2023-04-27T15:42:20.716Z,100197.34
2023-04-27T15:44:48.792Z,100197.94
2023-04-27T15:47:15.653Z,100201.19
2023-04-27T15:49:49.877Z,100200.06
2023-04-27T15:52:23.859Z,100202.59
2023-04-27T15:55:18.329Z,100198.38
2023-04-27T15:57:59.520Z,100192.38
2023-04-27T16:00:26.248Z,100187.19
2023-04-27T16:02:53.185Z,100195.38
2023-04-27T16:05:20.155Z,100196.31
2023-04-27T16:07:46.864Z,100203.34
2023-04-27T16:10:13.781Z,100195.94
2023-04-27T16:12:40.944Z,100192.31
2023-04-27T16:15:17.754Z,100197.69
2023-04-27T16:17:44.576Z,100200.63
2023-04-27T16:20:11.921Z,100210.53
2023-04-27T16:22:38.653Z,100206.00
2023-04-27T16:25:10.918Z,100212.19
2023-04-27T16:27:39.530Z,100206.56
2023-04-27T16:30:07.552Z,100210.41
2023-04-27T16:32:35.506Z,100215.38
2023-04-27T16:35:03.131Z,100211.47
2023-04-27T16:37:29.837Z,100213.37
2023-04-27T16:39:59.761Z,100220.31
2023-04-27T16:42:26.522Z,100224.69
2023-04-27T16:44:53.363Z,100220.88
2023-04-27T16:47:20.003Z,100216.50
2023-04-27T16:49:46.696Z,100211.34
2023-04-27T16:52:13.373Z,100215.31
2023-04-27T16:54:42.472Z,100218.09
2023-04-27T16:57:09.060Z,100216.47
2023-04-27T16:59:35.890Z,100228.34
2023-04-27T17:02:16.410Z,100230.53
2023-04-27T17:04:48.225Z,100221.00
2023-04-27T17:07:15.013Z,100231.19
2023-04-27T17:09:41.743Z,100232.91
2023-04-27T17:12:12.269Z,100227.59
2023-04-27T17:14:39.170Z,100226.59
2023-04-27T17:17:06.477Z,100228.53
2023-04-27T17:19:33.145Z,100240.34
2023-04-27T17:21:59.975Z,100235.44
2023-04-27T17:24:26.600Z,100238.19
2023-04-27T17:26:53.335Z,100247.03
2023-04-27T17:29:19.953Z,100247.97
2023-04-27T17:31:47.338Z,100238.28
2023-04-27T17:34:14.137Z,100245.62
2023-04-27T17:36:40.804Z,100248.28
2023-04-27T17:39:09.654Z,100255.19
2023-04-27T17:41:37.259Z,100257.25
2023-04-27T17:44:04.028Z,100257.37
2023-04-27T17:46:30.699Z,100255.47
2023-04-27T17:48:57.471Z,100263.25
2023-04-27T17:51:24.020Z,100262.53
2023-04-27T17:53:50.620Z,100262.75
2023-04-27T17:56:17.184Z,100267.03
2023-04-27T17:58:43.991Z,100273.09
2023-04-27T18:01:13.305Z,100272.59
2023-04-27T18:03:42.104Z,100270.25
2023-04-27T18:06:09.300Z,100281.19
2023-04-27T18:08:35.936Z,100275.44
2023-04-27T18:11:02.769Z,100273.88
2023-04-27T18:13:31.789Z,100279.00
2023-04-27T18:15:58.884Z,100280.03
2023-04-27T18:18:26.855Z,100284.37
2023-04-27T18:20:53.782Z,100284.16
2023-04-27T18:23:21.005Z,100275.91
2023-04-27T18:25:47.783Z,100289.75
2023-04-27T18:28:17.464Z,100285.44
2023-04-27T18:30:44.190Z,100287.78
2023-04-27T18:33:10.946Z,100295.47
2023-04-27T18:35:37.654Z,100295.75
2023-04-27T18:38:04.272Z,100300.03
2023-04-27T18:40:31.643Z,100303.97
2023-04-27T18:42:58.211Z,100308.00
2023-04-27T18:45:24.773Z,100308.63
2023-04-27T18:47:51.668Z,100312.00
2023-04-27T18:50:21.123Z,100322.19
2023-04-27T18:52:47.690Z,100318.13
2023-04-27T18:55:17.775Z,100322.78
2023-04-27T18:57:45.428Z,100325.28
2023-04-27T19:00:15.036Z,100319.63
2023-04-27T19:02:41.697Z,100323.72
2023-04-27T19:05:12.854Z,100330.31
2023-04-27T19:07:40.344Z,100323.19
2023-04-27T19:10:08.253Z,100335.28
2023-04-27T19:12:35.260Z,100334.47
2023-04-27T19:15:01.887Z,100338.34
2023-04-27T19:17:28.689Z,100337.50
2023-04-27T19:19:55.472Z,100340.81
2023-04-27T19:22:27.079Z,100343.03
2023-04-27T19:24:53.801Z,100346.03
2023-04-27T19:27:20.356Z,100347.44
2023-04-27T19:29:56.982Z,100345.78
2023-04-27T19:32:28.355Z,100344.19
2023-04-27T19:34:56.521Z,100344.44
2023-04-27T19:37:27.482Z,100344.72
2023-04-27T19:39:54.391Z,100347.72
2023-04-27T19:42:21.045Z,100339.22
2023-04-27T19:44:47.778Z,100345.81
2023-04-27T19:47:14.457Z,100338.13
2023-04-27T19:49:41.120Z,100331.56
2023-04-27T19:52:07.764Z,100331.87
2023-04-27T19:54:36.120Z,100335.16
2023-04-27T19:57:03.914Z,100338.16
2023-04-27T19:59:30.496Z,100341.69
2023-04-27T20:01:57.296Z,100335.69
2023-04-27T20:04:24.167Z,100342.25
2023-04-27T20:06:51.126Z,100347.72
2023-04-27T20:11:54.850Z,100341.97
2023-04-27T20:14:21.448Z,100348.25
2023-04-27T20:16:48.084Z,100346.63
2023-04-27T20:19:17.842Z,100346.34
2023-04-27T20:21:45.436Z,100342.75
2023-04-27T20:24:31.097Z,100348.72
2023-04-27T20:27:28.851Z,100346.78
2023-04-27T20:30:00.901Z,100344.00
2023-04-27T20:32:27.443Z,100346.38
2023-04-27T20:34:54.021Z,100343.13
2023-04-27T20:37:21.278Z,100347.53
2023-04-27T20:39:47.905Z,100349.09
2023-04-27T20:42:14.510Z,100334.59
2023-04-27T20:44:41.094Z,100345.72
2023-04-27T20:47:07.698Z,100350.03
2023-04-27T20:49:35.627Z,100348.22
2023-04-27T20:52:03.183Z,100339.69
2023-04-27T20:54:32.750Z,100346.75
2023-04-27T20:57:02.101Z,100342.13
2023-04-27T20:59:34.933Z,100344.31
2023-04-27T21:02:26.330Z,100353.53
2023-04-27T21:05:08.241Z,100350.03
2023-04-27T21:07:35.110Z,100346.00
2023-04-27T21:10:06.091Z,100355.81
2023-04-27T21:12:36.341Z,100356.00
2023-04-27T21:15:03.358Z,100358.09
2023-04-27T21:17:30.035Z,100360.28
2023-04-27T21:19:58.103Z,100354.47
2023-04-27T21:22:24.719Z,100366.41
2023-04-27T21:24:51.234Z,100356.88
2023-04-27T21:27:17.811Z,100361.88
2023-04-27T21:29:44.353Z,100365.91
2023-04-27T21:32:11.121Z,100371.06
2023-04-27T21:34:37.658Z,100368.09
2023-04-27T21:37:04.199Z,100367.59
2023-04-27T21:39:31.065Z,100373.56
2023-04-27T21:41:57.610Z,100372.75
2023-04-27T21:44:24.336Z,100375.66
2023-04-27T21:46:51.354Z,100381.47
2023-04-27T21:49:18.133Z,100376.28
2023-04-27T21:51:44.784Z,100376.66
2023-04-27T21:54:11.394Z,100377.81
2023-04-27T21:56:38.581Z,100379.78
2023-04-27T21:59:05.355Z,100380.69
2023-04-27T22:01:32.104Z,100382.34
2023-04-27T22:04:05.122Z,100390.63
2023-04-27T22:06:33.465Z,100384.62
2023-04-27T22:09:03.824Z,100387.44
2023-04-27T22:11:31.450Z,100390.91
2023-04-27T22:14:03.470Z,100386.47
2023-04-27T22:16:51.935Z,100385.41
2023-04-27T22:19:30.800Z,100388.94
2023-04-27T22:21:57.507Z,100391.00
2023-04-27T22:24:24.206Z,100390.06
2023-04-27T22:26:50.927Z,100395.97
2023-04-27T22:29:17.816Z,100395.66
2023-04-27T22:31:44.627Z,100401.22
2023-04-27T22:36:46.585Z,100402.16
2023-04-27T22:39:13.216Z,100404.16
2023-04-27T22:41:39.881Z,100402.63
2023-04-27T22:44:18.926Z,100402.31
2023-04-27T22:47:16.284Z,100405.47
2023-04-27T22:49:46.832Z,100413.63
2023-04-27T22:52:14.258Z,100412.44
2023-04-27T22:54:40.871Z,100412.09
2023-04-27T22:57:07.419Z,100408.88
2023-04-27T22:59:39.497Z,100411.34
2023-04-27T23:02:06.120Z,100415.09
2023-04-27T23:04:33.695Z,100420.13
2023-04-27T23:09:49.829Z,100410.84
2023-04-27T23:12:16.404Z,100414.00
2023-04-27T23:15:01.502Z,100410.69
2023-04-27T23:17:46.745Z,100414.16
2023-04-27T23:20:24.528Z,100413.19
2023-04-27T23:22:54.529Z,100418.66
2023-04-27T23:25:24.290Z,100410.78
2023-04-27T23:27:52.581Z,100415.09
2023-04-27T23:30:20.073Z,100410.03
2023-04-27T23:32:50.573Z,100411.88
2023-04-27T23:35:17.854Z,100410.31
2023-04-27T23:37:44.982Z,100418.69
2023-04-27T23:40:12.298Z,100426.94
2023-04-27T23:42:49.135Z,100412.72
2023-04-27T23:45:42.248Z,100421.97
2023-04-27T23:48:27.329Z,100424.72
2023-04-27T23:51:01.456Z,100422.97
2023-04-27T23:53:28.301Z,100424.13
2023-04-27T23:55:55.383Z,100427.75
2023-04-27T23:58:23.956Z,100422.06
